sensor_id;sensor_type;location;lat;lon;timestamp;temperature;humidity
65478;SHT31;53678;39.642;22.430;2023-12-22T00:00:29;4.68;94.57
65478;SHT31;53678;39.642;22.430;2023-12-22T00:02:55;4.58;94.02
65478;SHT31;53678;39.642;22.430;2023-12-22T00:05:21;4.72;93.78
65478;SHT31;53678;39.642;22.430;2023-12-22T00:07:46;4.79;93.27
65478;SHT31;53678;39.642;22.430;2023-12-22T00:10:12;4.83;92.89
65478;SHT31;53678;39.642;22.430;2023-12-22T00:12:38;4.89;92.96
65478;SHT31;53678;39.642;22.430;2023-12-22T00:15:05;4.95;92.57
65478;SHT31;53678;39.642;22.430;2023-12-22T00:17:32;5.00;92.79
65478;SHT31;53678;39.642;22.430;2023-12-22T00:20:00;5.13;92.76
65478;SHT31;53678;39.642;22.430;2023-12-22T00:22:28;5.19;92.12
65478;SHT31;53678;39.642;22.430;2023-12-22T00:24:55;5.29;92.04
65478;SHT31;53678;39.642;22.430;2023-12-22T00:27:20;5.36;91.22
65478;SHT31;53678;39.642;22.430;2023-12-22T00:29:46;5.40;91.04
65478;SHT31;53678;39.642;22.430;2023-12-22T00:32:12;5.44;90.74
65478;SHT31;53678;39.642;22.430;2023-12-22T00:34:37;5.50;91.08
65478;SHT31;53678;39.642;22.430;2023-12-22T00:37:03;5.58;90.89
65478;SHT31;53678;39.642;22.430;2023-12-22T00:39:30;5.65;90.63
65478;SHT31;53678;39.642;22.430;2023-12-22T00:41:57;5.78;90.46
65478;SHT31;53678;39.642;22.430;2023-12-22T00:44:23;5.88;89.73
65478;SHT31;53678;39.642;22.430;2023-12-22T00:46:49;5.91;89.45
65478;SHT31;53678;39.642;22.430;2023-12-22T00:49:14;5.75;88.62
65478;SHT31;53678;39.642;22.430;2023-12-22T00:51:40;5.34;89.89
65478;SHT31;53678;39.642;22.430;2023-12-22T00:54:06;5.33;91.03
65478;SHT31;53678;39.642;22.430;2023-12-22T00:56:32;5.37;91.09
65478;SHT31;53678;39.642;22.430;2023-12-22T00:58:57;5.39;90.54
65478;SHT31;53678;39.642;22.430;2023-12-22T01:01:23;5.43;90.64
65478;SHT31;53678;39.642;22.430;2023-12-22T01:03:49;5.55;90.75
65478;SHT31;53678;39.642;22.430;2023-12-22T01:06:15;5.57;90.15
65478;SHT31;53678;39.642;22.430;2023-12-22T01:08:40;5.44;90.27
65478;SHT31;53678;39.642;22.430;2023-12-22T01:11:06;4.83;91.85
65478;SHT31;53678;39.642;22.430;2023-12-22T01:13:32;4.86;92.82
65478;SHT31;53678;39.642;22.430;2023-12-22T01:15:58;5.05;93.02
65478;SHT31;53678;39.642;22.430;2023-12-22T01:18:23;5.08;92.12
65478;SHT31;53678;39.642;22.430;2023-12-22T01:20:51;5.09;91.25
65478;SHT31;53678;39.642;22.430;2023-12-22T01:23:17;4.91;91.83
65478;SHT31;53678;39.642;22.430;2023-12-22T01:25:42;5.02;91.69
65478;SHT31;53678;39.642;22.430;2023-12-22T01:28:08;4.91;91.06
65478;SHT31;53678;39.642;22.430;2023-12-22T01:30:37;4.99;91.99
65478;SHT31;53678;39.642;22.430;2023-12-22T01:33:02;5.09;91.70
65478;SHT31;53678;39.642;22.430;2023-12-22T01:35:28;5.18;91.59
65478;SHT31;53678;39.642;22.430;2023-12-22T01:37:54;5.33;91.86
65478;SHT31;53678;39.642;22.430;2023-12-22T01:40:20;5.39;91.21
65478;SHT31;53678;39.642;22.430;2023-12-22T01:42:45;5.46;90.79
65478;SHT31;53678;39.642;22.430;2023-12-22T01:45:14;5.36;89.72
65478;SHT31;53678;39.642;22.430;2023-12-22T01:47:40;5.13;90.22
65478;SHT31;53678;39.642;22.430;2023-12-22T01:50:06;5.09;90.88
65478;SHT31;53678;39.642;22.430;2023-12-22T01:52:32;5.18;90.57
65478;SHT31;53678;39.642;22.430;2023-12-22T01:54:58;5.13;90.17
65478;SHT31;53678;39.642;22.430;2023-12-22T01:57:27;5.19;90.68
65478;SHT31;53678;39.642;22.430;2023-12-22T01:59:52;5.18;89.75
65478;SHT31;53678;39.642;22.430;2023-12-22T02:02:18;4.88;90.82
65478;SHT31;53678;39.642;22.430;2023-12-22T02:04:44;4.82;90.80
65478;SHT31;53678;39.642;22.430;2023-12-22T02:07:10;4.88;90.64
65478;SHT31;53678;39.642;22.430;2023-12-22T02:09:36;4.93;90.48
65478;SHT31;53678;39.642;22.430;2023-12-22T02:12:03;4.93;89.99
65478;SHT31;53678;39.642;22.430;2023-12-22T02:14:29;5.00;90.27
65478;SHT31;53678;39.642;22.430;2023-12-22T02:19:43;5.05;89.87
65478;SHT31;53678;39.642;22.430;2023-12-22T02:22:11;5.06;89.85
65478;SHT31;53678;39.642;22.430;2023-12-22T02:24:38;5.09;89.62
65478;SHT31;53678;39.642;22.430;2023-12-22T02:27:32;5.12;89.47
65478;SHT31;53678;39.642;22.430;2023-12-22T02:30:12;5.12;89.16
65478;SHT31;53678;39.642;22.430;2023-12-22T02:32:44;5.12;88.96
65478;SHT31;53678;39.642;22.430;2023-12-22T02:35:21;5.15;89.00
65478;SHT31;53678;39.642;22.430;2023-12-22T02:37:48;4.99;88.64
65478;SHT31;53678;39.642;22.430;2023-12-22T02:40:15;4.79;88.79
65478;SHT31;53678;39.642;22.430;2023-12-22T02:42:41;4.67;89.82
65478;SHT31;53678;39.642;22.430;2023-12-22T02:45:14;4.67;89.17
65478;SHT31;53678;39.642;22.430;2023-12-22T02:47:40;4.76;89.85
65478;SHT31;53678;39.642;22.430;2023-12-22T02:50:07;4.69;88.47
65478;SHT31;53678;39.642;22.430;2023-12-22T02:52:33;4.65;88.78
65478;SHT31;53678;39.642;22.430;2023-12-22T02:54:59;4.71;88.81
65478;SHT31;53678;39.642;22.430;2023-12-22T02:57:24;4.79;89.38
65478;SHT31;53678;39.642;22.430;2023-12-22T02:59:50;4.83;88.93
65478;SHT31;53678;39.642;22.430;2023-12-22T03:02:16;4.82;88.67
65478;SHT31;53678;39.642;22.430;2023-12-22T03:04:41;4.81;88.22
65478;SHT31;53678;39.642;22.430;2023-12-22T03:07:07;4.72;88.57
65478;SHT31;53678;39.642;22.430;2023-12-22T03:09:33;4.78;88.75
65478;SHT31;53678;39.642;22.430;2023-12-22T03:12:00;4.81;88.82
65478;SHT31;53678;39.642;22.430;2023-12-22T03:14:29;4.71;88.32
65478;SHT31;53678;39.642;22.430;2023-12-22T03:16:56;4.61;88.59
65478;SHT31;53678;39.642;22.430;2023-12-22T03:19:22;4.67;88.80
65478;SHT31;53678;39.642;22.430;2023-12-22T03:21:50;4.58;88.23
65478;SHT31;53678;39.642;22.430;2023-12-22T03:24:16;4.44;89.13
65478;SHT31;53678;39.642;22.430;2023-12-22T03:26:45;4.52;89.19
65478;SHT31;53678;39.642;22.430;2023-12-22T03:29:11;4.60;88.18
65478;SHT31;53678;39.642;22.430;2023-12-22T03:31:37;4.50;87.47
65478;SHT31;53678;39.642;22.430;2023-12-22T03:34:03;4.27;87.38
65478;SHT31;53678;39.642;22.430;2023-12-22T03:36:28;3.82;88.05
65478;SHT31;53678;39.642;22.430;2023-12-22T03:38:54;3.94;89.59
65478;SHT31;53678;39.642;22.430;2023-12-22T03:41:20;4.10;89.63
65478;SHT31;53678;39.642;22.430;2023-12-22T03:43:45;4.24;88.23
65478;SHT31;53678;39.642;22.430;2023-12-22T03:46:11;4.23;88.40
65478;SHT31;53678;39.642;22.430;2023-12-22T03:48:37;4.30;88.18
65478;SHT31;53678;39.642;22.430;2023-12-22T03:51:03;4.04;88.85
65478;SHT31;53678;39.642;22.430;2023-12-22T03:53:28;4.18;89.19
65478;SHT31;53678;39.642;22.430;2023-12-22T03:55:55;4.36;89.29
65478;SHT31;53678;39.642;22.430;2023-12-22T03:58:20;4.48;88.59
65478;SHT31;53678;39.642;22.430;2023-12-22T04:00:47;4.64;88.67
65478;SHT31;53678;39.642;22.430;2023-12-22T04:03:13;4.81;88.57
65478;SHT31;53678;39.642;22.430;2023-12-22T04:05:38;4.95;88.14
65478;SHT31;53678;39.642;22.430;2023-12-22T04:08:05;5.15;88.29
65478;SHT31;53678;39.642;22.430;2023-12-22T04:10:31;5.29;87.30
65478;SHT31;53678;39.642;22.430;2023-12-22T04:12:56;5.22;87.56
65478;SHT31;53678;39.642;22.430;2023-12-22T04:15:22;5.05;88.42
65478;SHT31;53678;39.642;22.430;2023-12-22T04:17:48;5.09;88.63
65478;SHT31;53678;39.642;22.430;2023-12-22T04:20:15;5.10;87.89
65478;SHT31;53678;39.642;22.430;2023-12-22T04:22:41;5.08;88.20
65478;SHT31;53678;39.642;22.430;2023-12-22T04:25:07;5.16;88.43
65478;SHT31;53678;39.642;22.430;2023-12-22T04:27:34;5.18;87.71
65478;SHT31;53678;39.642;22.430;2023-12-22T04:30:00;5.23;88.27
65478;SHT31;53678;39.642;22.430;2023-12-22T04:32:26;4.99;89.16
65478;SHT31;53678;39.642;22.430;2023-12-22T04:34:52;5.00;89.73
65478;SHT31;53678;39.642;22.430;2023-12-22T04:37:18;5.00;88.93
65478;SHT31;53678;39.642;22.430;2023-12-22T04:39:45;4.67;88.95
65478;SHT31;53678;39.642;22.430;2023-12-22T04:42:10;4.51;89.96
65478;SHT31;53678;39.642;22.430;2023-12-22T04:44:36;4.69;89.99
65478;SHT31;53678;39.642;22.430;2023-12-22T04:47:02;4.76;89.17
65478;SHT31;53678;39.642;22.430;2023-12-22T04:49:28;4.83;89.10
65478;SHT31;53678;39.642;22.430;2023-12-22T04:51:54;4.81;89.06
65478;SHT31;53678;39.642;22.430;2023-12-22T04:54:19;5.03;89.85
65478;SHT31;53678;39.642;22.430;2023-12-22T04:56:45;5.06;88.92
65478;SHT31;53678;39.642;22.430;2023-12-22T04:59:11;5.10;88.94
65478;SHT31;53678;39.642;22.430;2023-12-22T05:01:36;5.19;88.69
65478;SHT31;53678;39.642;22.430;2023-12-22T05:04:02;5.02;89.64
65478;SHT31;53678;39.642;22.430;2023-12-22T05:06:30;4.85;90.12
65478;SHT31;53678;39.642;22.430;2023-12-22T05:08:56;4.96;90.12
65478;SHT31;53678;39.642;22.430;2023-12-22T05:11:22;5.09;89.51
65478;SHT31;53678;39.642;22.430;2023-12-22T05:13:48;5.19;89.32
65478;SHT31;53678;39.642;22.430;2023-12-22T05:16:14;5.12;88.94
65478;SHT31;53678;39.642;22.430;2023-12-22T05:18:40;5.20;89.48
65478;SHT31;53678;39.642;22.430;2023-12-22T05:21:05;5.23;89.79
65478;SHT31;53678;39.642;22.430;2023-12-22T05:23:31;4.97;89.73
65478;SHT31;53678;39.642;22.430;2023-12-22T05:25:57;4.93;89.98
65478;SHT31;53678;39.642;22.430;2023-12-22T05:28:23;4.97;89.95
65478;SHT31;53678;39.642;22.430;2023-12-22T05:30:49;5.13;89.20
65478;SHT31;53678;39.642;22.430;2023-12-22T05:33:14;5.13;88.43
65478;SHT31;53678;39.642;22.430;2023-12-22T05:35:40;5.18;88.40
65478;SHT31;53678;39.642;22.430;2023-12-22T05:38:07;5.19;88.35
65478;SHT31;53678;39.642;22.430;2023-12-22T05:40:33;5.16;88.43
65478;SHT31;53678;39.642;22.430;2023-12-22T05:42:58;4.58;90.00
65478;SHT31;53678;39.642;22.430;2023-12-22T05:45:24;4.48;90.93
65478;SHT31;53678;39.642;22.430;2023-12-22T05:47:50;4.44;91.02
65478;SHT31;53678;39.642;22.430;2023-12-22T05:50:16;4.71;90.93
65478;SHT31;53678;39.642;22.430;2023-12-22T05:52:42;4.82;90.20
65478;SHT31;53678;39.642;22.430;2023-12-22T05:55:11;4.96;90.10
65478;SHT31;53678;39.642;22.430;2023-12-22T05:57:37;5.10;89.72
65478;SHT31;53678;39.642;22.430;2023-12-22T06:00:04;5.37;88.90
65478;SHT31;53678;39.642;22.430;2023-12-22T06:02:33;5.47;89.20
65478;SHT31;53678;39.642;22.430;2023-12-22T06:05:02;5.67;88.14
65478;SHT31;53678;39.642;22.430;2023-12-22T06:08:13;5.29;89.17
65478;SHT31;53678;39.642;22.430;2023-12-22T06:10:39;4.97;90.54
65478;SHT31;53678;39.642;22.430;2023-12-22T06:13:06;5.08;90.33
65478;SHT31;53678;39.642;22.430;2023-12-22T06:15:32;5.09;90.22
65478;SHT31;53678;39.642;22.430;2023-12-22T06:17:57;5.24;90.45
65478;SHT31;53678;39.642;22.430;2023-12-22T06:20:23;5.43;90.31
65478;SHT31;53678;39.642;22.430;2023-12-22T06:22:49;5.58;89.72
65478;SHT31;53678;39.642;22.430;2023-12-22T06:25:15;5.79;89.51
65478;SHT31;53678;39.642;22.430;2023-12-22T06:27:41;5.81;88.67
65478;SHT31;53678;39.642;22.430;2023-12-22T06:30:07;5.89;88.67
65478;SHT31;53678;39.642;22.430;2023-12-22T06:32:33;6.03;88.78
65478;SHT31;53678;39.642;22.430;2023-12-22T06:35:00;6.29;87.89
65478;SHT31;53678;39.642;22.430;2023-12-22T06:37:26;6.40;87.10
65478;SHT31;53678;39.642;22.430;2023-12-22T06:39:52;6.41;86.96
65478;SHT31;53678;39.642;22.430;2023-12-22T06:42:19;6.47;86.95
65478;SHT31;53678;39.642;22.430;2023-12-22T06:44:45;6.56;86.79
65478;SHT31;53678;39.642;22.430;2023-12-22T06:47:10;6.63;86.88
65478;SHT31;53678;39.642;22.430;2023-12-22T06:49:36;6.73;86.16
65478;SHT31;53678;39.642;22.430;2023-12-22T06:52:02;6.73;86.43
65478;SHT31;53678;39.642;22.430;2023-12-22T06:54:28;6.76;86.62
65478;SHT31;53678;39.642;22.430;2023-12-22T06:56:54;6.76;86.73
65478;SHT31;53678;39.642;22.430;2023-12-22T06:59:20;6.80;86.93
65478;SHT31;53678;39.642;22.430;2023-12-22T07:01:45;6.84;86.99
65478;SHT31;53678;39.642;22.430;2023-12-22T07:04:11;6.84;87.43
65478;SHT31;53678;39.642;22.430;2023-12-22T07:06:38;6.66;88.43
65478;SHT31;53678;39.642;22.430;2023-12-22T07:11:48;6.50;88.77
65478;SHT31;53678;39.642;22.430;2023-12-22T07:14:15;6.78;87.65
65478;SHT31;53678;39.642;22.430;2023-12-22T07:16:41;6.68;87.27
65478;SHT31;53678;39.642;22.430;2023-12-22T07:19:10;6.74;87.32
65478;SHT31;53678;39.642;22.430;2023-12-22T07:21:39;6.88;87.57
65478;SHT31;53678;39.642;22.430;2023-12-22T07:24:06;7.04;86.97
65478;SHT31;53678;39.642;22.430;2023-12-22T07:26:32;7.15;87.04
65478;SHT31;53678;39.642;22.430;2023-12-22T07:28:58;7.26;86.65
65478;SHT31;53678;39.642;22.430;2023-12-22T07:31:24;7.28;86.30
65478;SHT31;53678;39.642;22.430;2023-12-22T07:33:51;7.38;86.51
65478;SHT31;53678;39.642;22.430;2023-12-22T07:36:17;7.39;86.42
65478;SHT31;53678;39.642;22.430;2023-12-22T07:38:46;7.45;86.54
65478;SHT31;53678;39.642;22.430;2023-12-22T07:41:12;7.49;86.66
65478;SHT31;53678;39.642;22.430;2023-12-22T07:43:38;7.49;86.69
65478;SHT31;53678;39.642;22.430;2023-12-22T07:46:05;7.49;86.97
65478;SHT31;53678;39.642;22.430;2023-12-22T07:48:30;7.63;86.25
65478;SHT31;53678;39.642;22.430;2023-12-22T07:50:56;7.74;85.83
65478;SHT31;53678;39.642;22.430;2023-12-22T07:53:22;7.91;85.06
65478;SHT31;53678;39.642;22.430;2023-12-22T07:55:48;8.08;85.48
65478;SHT31;53678;39.642;22.430;2023-12-22T07:58:14;8.17;85.00
65478;SHT31;53678;39.642;22.430;2023-12-22T08:00:40;8.22;84.94
65478;SHT31;53678;39.642;22.430;2023-12-22T08:03:06;8.21;84.54
65478;SHT31;53678;39.642;22.430;2023-12-22T08:05:33;8.26;84.25
65478;SHT31;53678;39.642;22.430;2023-12-22T08:08:00;8.29;84.25
65478;SHT31;53678;39.642;22.430;2023-12-22T08:10:26;8.34;84.18
65478;SHT31;53678;39.642;22.430;2023-12-22T08:12:52;8.35;84.08
65478;SHT31;53678;39.642;22.430;2023-12-22T08:15:18;8.57;83.98
65478;SHT31;53678;39.642;22.430;2023-12-22T08:17:48;8.56;83.95
65478;SHT31;53678;39.642;22.430;2023-12-22T08:20:18;8.42;84.19
65478;SHT31;53678;39.642;22.430;2023-12-22T08:22:48;8.50;84.54
65478;SHT31;53678;39.642;22.430;2023-12-22T08:25:14;8.73;84.79
65478;SHT31;53678;39.642;22.430;2023-12-22T08:27:40;8.76;84.26
65478;SHT31;53678;39.642;22.430;2023-12-22T08:30:06;8.65;83.53
65478;SHT31;53678;39.642;22.430;2023-12-22T08:32:34;8.67;83.87
65478;SHT31;53678;39.642;22.430;2023-12-22T08:34:59;8.53;83.44
65478;SHT31;53678;39.642;22.430;2023-12-22T08:37:25;8.62;84.16
65478;SHT31;53678;39.642;22.430;2023-12-22T08:39:51;8.62;83.99
65478;SHT31;53678;39.642;22.430;2023-12-22T08:42:19;8.60;84.01
65478;SHT31;53678;39.642;22.430;2023-12-22T08:44:44;8.53;84.68
65478;SHT31;53678;39.642;22.430;2023-12-22T08:47:11;8.75;84.78
65478;SHT31;53678;39.642;22.430;2023-12-22T08:49:37;8.86;83.97
65478;SHT31;53678;39.642;22.430;2023-12-22T08:52:03;9.08;83.75
65478;SHT31;53678;39.642;22.430;2023-12-22T08:54:30;9.38;82.83
65478;SHT31;53678;39.642;22.430;2023-12-22T08:56:56;9.59;81.93
65478;SHT31;53678;39.642;22.430;2023-12-22T08:59:21;9.73;80.69
65478;SHT31;53678;39.642;22.430;2023-12-22T09:01:48;9.72;78.36
65478;SHT31;53678;39.642;22.430;2023-12-22T09:04:13;9.83;78.77
65478;SHT31;53678;39.642;22.430;2023-12-22T09:06:40;9.94;79.20
65478;SHT31;53678;39.642;22.430;2023-12-22T09:09:06;9.85;78.52
65478;SHT31;53678;39.642;22.430;2023-12-22T09:11:35;9.92;78.94
65478;SHT31;53678;39.642;22.430;2023-12-22T09:14:02;10.00;79.55
65478;SHT31;53678;39.642;22.430;2023-12-22T09:16:27;9.90;80.26
65478;SHT31;53678;39.642;22.430;2023-12-22T09:18:53;9.59;82.80
65478;SHT31;53678;39.642;22.430;2023-12-22T09:21:19;9.54;84.19
65478;SHT31;53678;39.642;22.430;2023-12-22T09:23:45;9.73;84.15
65478;SHT31;53678;39.642;22.430;2023-12-22T09:26:13;9.56;84.64
65478;SHT31;53678;39.642;22.430;2023-12-22T09:28:40;9.63;84.31
65478;SHT31;53678;39.642;22.430;2023-12-22T09:31:07;9.59;84.42
65478;SHT31;53678;39.642;22.430;2023-12-22T09:33:33;9.65;85.08
65478;SHT31;53678;39.642;22.430;2023-12-22T09:35:58;10.30;87.93
65478;SHT31;53678;39.642;22.430;2023-12-22T09:38:24;10.29;83.56
65478;SHT31;53678;39.642;22.430;2023-12-22T09:40:50;10.20;83.47
65478;SHT31;53678;39.642;22.430;2023-12-22T09:43:19;10.03;83.66
65478;SHT31;53678;39.642;22.430;2023-12-22T09:45:49;10.07;83.53
65478;SHT31;53678;39.642;22.430;2023-12-22T09:48:17;9.99;83.87
65478;SHT31;53678;39.642;22.430;2023-12-22T09:50:45;10.14;83.62
65478;SHT31;53678;39.642;22.430;2023-12-22T09:53:12;9.89;84.48
65478;SHT31;53678;39.642;22.430;2023-12-22T09:55:46;10.13;84.35
65478;SHT31;53678;39.642;22.430;2023-12-22T09:58:12;10.30;83.00
65478;SHT31;53678;39.642;22.430;2023-12-22T10:00:39;10.58;82.40
65478;SHT31;53678;39.642;22.430;2023-12-22T10:03:06;10.68;82.21
65478;SHT31;53678;39.642;22.430;2023-12-22T10:05:33;10.58;82.52
65478;SHT31;53678;39.642;22.430;2023-12-22T10:08:00;10.58;82.80
65478;SHT31;53678;39.642;22.430;2023-12-22T10:10:30;10.50;83.56
65478;SHT31;53678;39.642;22.430;2023-12-22T10:12:59;10.73;83.42
65478;SHT31;53678;39.642;22.430;2023-12-22T10:15:26;11.12;81.64
65478;SHT31;53678;39.642;22.430;2023-12-22T10:17:52;10.69;81.80
65478;SHT31;53678;39.642;22.430;2023-12-22T10:20:19;11.16;81.29
65478;SHT31;53678;39.642;22.430;2023-12-22T10:22:45;11.27;81.07
65478;SHT31;53678;39.642;22.430;2023-12-22T10:25:15;11.15;81.83
65478;SHT31;53678;39.642;22.430;2023-12-22T10:27:42;11.30;81.26
65478;SHT31;53678;39.642;22.430;2023-12-22T10:30:09;11.26;81.59
65478;SHT31;53678;39.642;22.430;2023-12-22T10:32:40;11.34;80.56
65478;SHT31;53678;39.642;22.430;2023-12-22T10:35:09;11.54;80.45
65478;SHT31;53678;39.642;22.430;2023-12-22T10:37:35;11.47;79.92
65478;SHT31;53678;39.642;22.430;2023-12-22T10:40:06;11.63;79.89
65478;SHT31;53678;39.642;22.430;2023-12-22T10:42:34;11.74;80.11
65478;SHT31;53678;39.642;22.430;2023-12-22T10:45:01;11.71;83.50
65478;SHT31;53678;39.642;22.430;2023-12-22T10:47:28;12.46;81.52
65478;SHT31;53678;39.642;22.430;2023-12-22T10:49:54;12.32;78.49
65478;SHT31;53678;39.642;22.430;2023-12-22T10:52:20;12.19;78.85
65478;SHT31;53678;39.642;22.430;2023-12-22T10:54:47;12.30;78.87
65478;SHT31;53678;39.642;22.430;2023-12-22T10:57:17;12.28;78.58
65478;SHT31;53678;39.642;22.430;2023-12-22T10:59:47;12.60;77.80
65478;SHT31;53678;39.642;22.430;2023-12-22T11:02:17;12.70;77.78
65478;SHT31;53678;39.642;22.430;2023-12-22T11:05:05;12.76;77.76
65478;SHT31;53678;39.642;22.430;2023-12-22T11:07:33;13.04;77.99
65478;SHT31;53678;39.642;22.430;2023-12-22T11:10:05;13.11;77.83
65478;SHT31;53678;39.642;22.430;2023-12-22T11:12:35;13.11;77.55
65478;SHT31;53678;39.642;22.430;2023-12-22T11:15:03;13.07;77.72
65478;SHT31;53678;39.642;22.430;2023-12-22T11:17:32;13.05;78.25
65478;SHT31;53678;39.642;22.430;2023-12-22T11:19:59;12.97;78.81
65478;SHT31;53678;39.642;22.430;2023-12-22T11:22:25;12.94;79.36
65478;SHT31;53678;39.642;22.430;2023-12-22T11:24:53;13.05;79.15
65478;SHT31;53678;39.642;22.430;2023-12-22T11:27:22;13.07;79.05
65478;SHT31;53678;39.642;22.430;2023-12-22T11:29:49;13.12;79.49
65478;SHT31;53678;39.642;22.430;2023-12-22T11:32:17;13.26;79.04
65478;SHT31;53678;39.642;22.430;2023-12-22T11:34:44;13.18;79.21
65478;SHT31;53678;39.642;22.430;2023-12-22T11:37:11;13.25;78.99
65478;SHT31;53678;39.642;22.430;2023-12-22T11:39:38;13.38;78.94
65478;SHT31;53678;39.642;22.430;2023-12-22T11:42:10;13.58;78.64
65478;SHT31;53678;39.642;22.430;2023-12-22T11:44:36;13.67;78.13
65478;SHT31;53678;39.642;22.430;2023-12-22T11:47:06;13.90;77.93
65478;SHT31;53678;39.642;22.430;2023-12-22T11:49:37;13.96;77.44
65478;SHT31;53678;39.642;22.430;2023-12-22T11:52:16;13.99;77.75
65478;SHT31;53678;39.642;22.430;2023-12-22T11:54:47;13.99;77.29
65478;SHT31;53678;39.642;22.430;2023-12-22T11:57:37;14.32;76.60
65478;SHT31;53678;39.642;22.430;2023-12-22T12:02:41;14.67;76.17
65478;SHT31;53678;39.642;22.430;2023-12-22T12:05:08;14.85;74.87
65478;SHT31;53678;39.642;22.430;2023-12-22T12:10:56;14.95;73.44
65478;SHT31;53678;39.642;22.430;2023-12-22T12:13:10;14.96;74.36
65478;SHT31;53678;39.642;22.430;2023-12-22T12:15:36;15.17;72.86
65478;SHT31;53678;39.642;22.430;2023-12-22T12:18:03;15.29;71.54
65478;SHT31;53678;39.642;22.430;2023-12-22T12:20:29;15.10;71.49
65478;SHT31;53678;39.642;22.430;2023-12-22T12:22:55;15.02;71.96
65478;SHT31;53678;39.642;22.430;2023-12-22T12:25:22;14.75;72.48
65478;SHT31;53678;39.642;22.430;2023-12-22T12:28:03;14.72;72.72
65478;SHT31;53678;39.642;22.430;2023-12-22T12:30:31;14.76;73.11
65478;SHT31;53678;39.642;22.430;2023-12-22T12:32:59;14.75;73.26
65478;SHT31;53678;39.642;22.430;2023-12-22T12:35:35;14.78;73.28
65478;SHT31;53678;39.642;22.430;2023-12-22T12:38:00;14.89;72.09
65478;SHT31;53678;39.642;22.430;2023-12-22T12:40:27;15.14;71.34
65478;SHT31;53678;39.642;22.430;2023-12-22T12:42:59;15.46;73.67
65478;SHT31;53678;39.642;22.430;2023-12-22T12:45:26;15.48;72.78
65478;SHT31;53678;39.642;22.430;2023-12-22T12:47:59;15.34;71.76
65478;SHT31;53678;39.642;22.430;2023-12-22T12:50:26;15.33;70.73
65478;SHT31;53678;39.642;22.430;2023-12-22T12:52:52;15.38;70.57
65478;SHT31;53678;39.642;22.430;2023-12-22T12:55:22;15.30;70.99
65478;SHT31;53678;39.642;22.430;2023-12-22T12:57:52;15.27;71.52
65478;SHT31;53678;39.642;22.430;2023-12-22T13:00:28;15.17;72.01
65478;SHT31;53678;39.642;22.430;2023-12-22T13:02:54;15.17;71.80
65478;SHT31;53678;39.642;22.430;2023-12-22T13:05:24;15.06;71.34
65478;SHT31;53678;39.642;22.430;2023-12-22T13:07:50;15.06;71.67
65478;SHT31;53678;39.642;22.430;2023-12-22T13:10:24;14.96;71.52
65478;SHT31;53678;39.642;22.430;2023-12-22T13:12:50;14.89;71.69
65478;SHT31;53678;39.642;22.430;2023-12-22T13:15:20;14.90;71.83
65478;SHT31;53678;39.642;22.430;2023-12-22T13:17:47;14.95;71.69
65478;SHT31;53678;39.642;22.430;2023-12-22T13:20:13;14.92;71.80
65478;SHT31;53678;39.642;22.430;2023-12-22T13:22:39;15.13;73.46
65478;SHT31;53678;39.642;22.430;2023-12-22T13:25:05;15.20;70.96
65478;SHT31;53678;39.642;22.430;2023-12-22T13:27:43;15.37;70.04
65478;SHT31;53678;39.642;22.430;2023-12-22T13:30:09;15.57;70.73
65478;SHT31;53678;39.642;22.430;2023-12-22T13:32:36;15.67;69.14
65478;SHT31;53678;39.642;22.430;2023-12-22T13:35:03;15.71;67.84
65478;SHT31;53678;39.642;22.430;2023-12-22T13:37:31;15.87;67.14
65478;SHT31;53678;39.642;22.430;2023-12-22T13:39:56;15.87;66.93
65478;SHT31;53678;39.642;22.430;2023-12-22T13:42:25;15.61;66.73
65478;SHT31;53678;39.642;22.430;2023-12-22T13:44:51;15.58;66.84
65478;SHT31;53678;39.642;22.430;2023-12-22T13:47:18;15.59;66.51
65478;SHT31;53678;39.642;22.430;2023-12-22T13:49:46;15.57;66.47
65478;SHT31;53678;39.642;22.430;2023-12-22T13:52:24;15.62;66.62
65478;SHT31;53678;39.642;22.430;2023-12-22T13:54:51;15.55;66.34
65478;SHT31;53678;39.642;22.430;2023-12-22T13:57:22;15.48;67.12
65478;SHT31;53678;39.642;22.430;2023-12-22T13:59:47;15.41;67.17
65478;SHT31;53678;39.642;22.430;2023-12-22T14:02:13;15.29;67.54
65478;SHT31;53678;39.642;22.430;2023-12-22T14:04:39;15.23;68.17
65478;SHT31;53678;39.642;22.430;2023-12-22T14:07:05;15.29;68.97
65478;SHT31;53678;39.642;22.430;2023-12-22T14:09:31;15.22;68.47
65478;SHT31;53678;39.642;22.430;2023-12-22T14:11:59;14.99;69.14
65478;SHT31;53678;39.642;22.430;2023-12-22T14:14:26;15.00;69.18
65478;SHT31;53678;39.642;22.430;2023-12-22T14:16:51;15.03;68.87
65478;SHT31;53678;39.642;22.430;2023-12-22T14:19:17;15.16;68.84
65478;SHT31;53678;39.642;22.430;2023-12-22T14:21:43;15.22;68.19
65478;SHT31;53678;39.642;22.430;2023-12-22T14:24:08;15.11;68.21
65478;SHT31;53678;39.642;22.430;2023-12-22T14:26:52;15.03;68.34
65478;SHT31;53678;39.642;22.430;2023-12-22T14:29:18;15.09;68.36
65478;SHT31;53678;39.642;22.430;2023-12-22T14:31:43;15.00;68.07
65478;SHT31;53678;39.642;22.430;2023-12-22T14:34:12;14.93;68.58
65478;SHT31;53678;39.642;22.430;2023-12-22T14:36:38;14.98;68.62
65478;SHT31;53678;39.642;22.430;2023-12-22T14:39:04;14.95;68.71
65478;SHT31;53678;39.642;22.430;2023-12-22T14:41:30;14.85;69.11
65478;SHT31;53678;39.642;22.430;2023-12-22T14:43:56;14.90;69.21
65478;SHT31;53678;39.642;22.430;2023-12-22T14:46:22;14.86;69.35
65478;SHT31;53678;39.642;22.430;2023-12-22T14:48:47;14.73;69.59
65478;SHT31;53678;39.642;22.430;2023-12-22T14:51:13;14.68;69.70
65478;SHT31;53678;39.642;22.430;2023-12-22T14:53:39;14.73;69.13
65478;SHT31;53678;39.642;22.430;2023-12-22T14:56:06;14.62;69.44
65478;SHT31;53678;39.642;22.430;2023-12-22T14:58:32;14.61;69.43
65478;SHT31;53678;39.642;22.430;2023-12-22T15:00:59;14.48;69.76
65478;SHT31;53678;39.642;22.430;2023-12-22T15:03:25;14.42;70.38
65478;SHT31;53678;39.642;22.430;2023-12-22T15:05:51;14.40;70.49
65478;SHT31;53678;39.642;22.430;2023-12-22T15:08:17;14.30;70.94
65478;SHT31;53678;39.642;22.430;2023-12-22T15:10:43;14.17;71.58
65478;SHT31;53678;39.642;22.430;2023-12-22T15:13:09;14.34;71.46
65478;SHT31;53678;39.642;22.430;2023-12-22T15:15:34;14.35;71.73
65478;SHT31;53678;39.642;22.430;2023-12-22T15:18:00;14.31;71.56
65478;SHT31;53678;39.642;22.430;2023-12-22T15:20:26;14.40;71.42
65478;SHT31;53678;39.642;22.430;2023-12-22T15:22:51;14.35;71.34
65478;SHT31;53678;39.642;22.430;2023-12-22T15:25:17;14.42;71.03
65478;SHT31;53678;39.642;22.430;2023-12-22T15:27:44;14.51;70.56
65478;SHT31;53678;39.642;22.430;2023-12-22T15:30:10;14.67;69.68
65478;SHT31;53678;39.642;22.430;2023-12-22T15:32:36;14.59;69.61
65478;SHT31;53678;39.642;22.430;2023-12-22T15:35:02;14.54;69.34